sensor_id;sensor_type;location;lat;lon;timestamp;pressure;altitude;pressure_sealevel;temperature;humidity
59110;BME280;44895;47.438;18.978;2023-04-25T00:02:44;99012.53;;;11.76;100.00
59110;BME280;44895;47.438;18.978;2023-04-25T00:05:49;99007.91;;;11.68;100.00
59110;BME280;44895;47.438;18.978;2023-04-25T00:08:55;99004.56;;;11.71;100.00
59110;BME280;44895;47.438;18.978;2023-04-25T00:12:00;99002.38;;;11.55;100.00
59110;BME280;44895;47.438;18.978;2023-04-25T00:15:05;99001.56;;;11.55;100.00
59110;BME280;44895;47.438;18.978;2023-04-25T00:18:09;98990.81;;;11.67;100.00
59110;BME280;44895;47.438;18.978;2023-04-25T00:21:14;98987.16;;;11.63;100.00
59110;BME280;44895;47.438;18.978;2023-04-25T00:24:20;98987.16;;;11.63;100.00
59110;BME280;44895;47.438;18.978;2023-04-25T00:27:25;98974.56;;;11.50;100.00
59110;BME280;44895;47.438;18.978;2023-04-25T00:30:28;98979.44;;;11.65;100.00
59110;BME280;44895;47.438;18.978;2023-04-25T00:33:32;98968.66;;;11.56;100.00
59110;BME280;44895;47.438;18.978;2023-04-25T00:36:35;98974.13;;;11.48;100.00
59110;BME280;44895;47.438;18.978;2023-04-25T00:39:39;98968.34;;;11.49;100.00
59110;BME280;44895;47.438;18.978;2023-04-25T00:42:44;98975.22;;;11.47;100.00
59110;BME280;44895;47.438;18.978;2023-04-25T00:45:50;98960.03;;;11.46;100.00
59110;BME280;44895;47.438;18.978;2023-04-25T00:48:55;98968.72;;;11.39;100.00
59110;BME280;44895;47.438;18.978;2023-04-25T00:51:59;98974.19;;;11.30;100.00
59110;BME280;44895;47.438;18.978;2023-04-25T00:55:02;98961.63;;;11.47;100.00
59110;BME280;44895;47.438;18.978;2023-04-25T00:58:07;98954.59;;;11.46;100.00
59110;BME280;44895;47.438;18.978;2023-04-25T01:01:11;98955.88;;;11.48;100.00
59110;BME280;44895;47.438;18.978;2023-04-25T01:04:16;98951.56;;;11.47;100.00
59110;BME280;44895;47.438;18.978;2023-04-25T01:07:20;98949.31;;;11.49;100.00
59110;BME280;44895;47.438;18.978;2023-04-25T01:10:24;98949.47;;;11.53;100.00
59110;BME280;44895;47.438;18.978;2023-04-25T01:13:28;98958.06;;;11.55;100.00
59110;BME280;44895;47.438;18.978;2023-04-25T01:16:32;98951.22;;;11.49;100.00
59110;BME280;44895;47.438;18.978;2023-04-25T01:19:36;98942.94;;;11.45;100.00
59110;BME280;44895;47.438;18.978;2023-04-25T01:22:40;98942.00;;;11.32;100.00
59110;BME280;44895;47.438;18.978;2023-04-25T01:25:45;98937.50;;;11.45;100.00
59110;BME280;44895;47.438;18.978;2023-04-25T01:28:49;98943.63;;;11.33;100.00
59110;BME280;44895;47.438;18.978;2023-04-25T01:31:53;98936.59;;;11.32;100.00
59110;BME280;44895;47.438;18.978;2023-04-25T01:34:57;98935.78;;;11.32;100.00
59110;BME280;44895;47.438;18.978;2023-04-25T01:38:03;98947.34;;;11.20;100.00
59110;BME280;44895;47.438;18.978;2023-04-25T01:41:07;98938.38;;;11.28;100.00
59110;BME280;44895;47.438;18.978;2023-04-25T01:44:10;98936.16;;;11.21;100.00
59110;BME280;44895;47.438;18.978;2023-04-25T01:47:14;98930.22;;;11.28;100.00
59110;BME280;44895;47.438;18.978;2023-04-25T01:50:19;98940.00;;;11.20;100.00
59110;BME280;44895;47.438;18.978;2023-04-25T01:53:23;98932.75;;;11.33;100.00
59110;BME280;44895;47.438;18.978;2023-04-25T01:56:31;98932.28;;;11.31;100.00
59110;BME280;44895;47.438;18.978;2023-04-25T01:59:36;98940.13;;;11.33;100.00
59110;BME280;44895;47.438;18.978;2023-04-25T02:03:00;98944.63;;;11.29;100.00
59110;BME280;44895;47.438;18.978;2023-04-25T02:06:08;98945.47;;;11.12;100.00
59110;BME280;44895;47.438;18.978;2023-04-25T02:09:15;98945.47;;;11.12;100.00
59110;BME280;44895;47.438;18.978;2023-04-25T02:12:23;98940.97;;;11.16;100.00
59110;BME280;44895;47.438;18.978;2023-04-25T02:15:54;98946.53;;;11.19;100.00
59110;BME280;44895;47.438;18.978;2023-04-25T02:18:58;98952.34;;;11.09;100.00
59110;BME280;44895;47.438;18.978;2023-04-25T02:22:03;98960.34;;;11.05;100.00
59110;BME280;44895;47.438;18.978;2023-04-25T02:25:08;98957.78;;;11.09;100.00
59110;BME280;44895;47.438;18.978;2023-04-25T02:28:13;98955.84;;;11.09;100.00
59110;BME280;44895;47.438;18.978;2023-04-25T02:31:17;98951.03;;;11.15;100.00
59110;BME280;44895;47.438;18.978;2023-04-25T02:34:20;98951.69;;;11.12;100.00
59110;BME280;44895;47.438;18.978;2023-04-25T02:37:24;98950.41;;;11.09;100.00
59110;BME280;44895;47.438;18.978;2023-04-25T02:40:28;98951.19;;;11.19;100.00
59110;BME280;44895;47.438;18.978;2023-04-25T02:43:32;98951.97;;;11.19;100.00
59110;BME280;44895;47.438;18.978;2023-04-25T02:46:35;98951.97;;;11.19;100.00
59110;BME280;44895;47.438;18.978;2023-04-25T02:49:39;98959.19;;;11.15;100.00
59110;BME280;44895;47.438;18.978;2023-04-25T02:52:43;98950.13;;;11.02;100.00
59110;BME280;44895;47.438;18.978;2023-04-25T02:55:28;98956.19;;;10.99;100.00
59110;BME280;44895;47.438;18.978;2023-04-25T02:58:33;98952.69;;;10.99;100.00
59110;BME280;44895;47.438;18.978;2023-04-25T03:01:37;98951.25;;;10.92;100.00
59110;BME280;44895;47.438;18.978;2023-04-25T03:04:41;98946.44;;;10.98;100.00
59110;BME280;44895;47.438;18.978;2023-04-25T03:07:44;98936.09;;;10.91;100.00
59110;BME280;44895;47.438;18.978;2023-04-25T03:10:49;98961.94;;;10.98;100.00
59110;BME280;44895;47.438;18.978;2023-04-25T03:13:54;98942.66;;;10.82;100.00
59110;BME280;44895;47.438;18.978;2023-04-25T03:16:58;98933.88;;;10.76;100.00
59110;BME280;44895;47.438;18.978;2023-04-25T03:20:02;98936.94;;;10.66;100.00
59110;BME280;44895;47.438;18.978;2023-04-25T03:23:08;98938.06;;;10.65;100.00
59110;BME280;44895;47.438;18.978;2023-04-25T03:26:11;98936.13;;;10.74;100.00
59110;BME280;44895;47.438;18.978;2023-04-25T03:29:15;98933.56;;;10.69;100.00
59110;BME280;44895;47.438;18.978;2023-04-25T03:32:20;98935.66;;;10.63;100.00
59110;BME280;44895;47.438;18.978;2023-04-25T03:35:24;98934.88;;;10.54;100.00
59110;BME280;44895;47.438;18.978;2023-04-25T03:38:28;98929.91;;;10.56;100.00
59110;BME280;44895;47.438;18.978;2023-04-25T03:41:32;98950.53;;;10.48;100.00
59110;BME280;44895;47.438;18.978;2023-04-25T03:44:41;98944.44;;;10.51;100.00
59110;BME280;44895;47.438;18.978;2023-04-25T03:47:45;98946.88;;;10.53;100.00
59110;BME280;44895;47.438;18.978;2023-04-25T03:50:49;98957.56;;;10.40;100.00
59110;BME280;44895;47.438;18.978;2023-04-25T03:53:52;98955.19;;;10.48;100.00
59110;BME280;44895;47.438;18.978;2023-04-25T03:56:56;98961.88;;;10.41;100.00
59110;BME280;44895;47.438;18.978;2023-04-25T04:00:03;98964.75;;;10.36;100.00
59110;BME280;44895;47.438;18.978;2023-04-25T04:03:16;98973.97;;;10.35;100.00
59110;BME280;44895;47.438;18.978;2023-04-25T04:06:20;98969.53;;;10.48;100.00
59110;BME280;44895;47.438;18.978;2023-04-25T04:09:28;98976.72;;;10.44;100.00
59110;BME280;44895;47.438;18.978;2023-04-25T04:12:33;98975.75;;;10.31;100.00
59110;BME280;44895;47.438;18.978;2023-04-25T04:15:38;98974.78;;;10.36;100.00
59110;BME280;44895;47.438;18.978;2023-04-25T04:18:42;98982.13;;;10.35;100.00
59110;BME280;44895;47.438;18.978;2023-04-25T04:21:46;98982.59;;;10.37;100.00
59110;BME280;44895;47.438;18.978;2023-04-25T04:24:49;98981.81;;;10.37;100.00
59110;BME280;44895;47.438;18.978;2023-04-25T04:27:58;98982.59;;;10.28;100.00
59110;BME280;44895;47.438;18.978;2023-04-25T04:31:21;98981.94;;;10.23;100.00
59110;BME280;44895;47.438;18.978;2023-04-25T04:34:25;98992.19;;;10.43;100.00
59110;BME280;44895;47.438;18.978;2023-04-25T04:37:31;98987.53;;;10.26;100.00
59110;BME280;44895;47.438;18.978;2023-04-25T04:40:36;98991.38;;;10.25;100.00
59110;BME280;44895;47.438;18.978;2023-04-25T04:44:09;98994.41;;;10.24;100.00
59110;BME280;44895;47.438;18.978;2023-04-25T04:47:26;98996.16;;;10.28;100.00
59110;BME280;44895;47.438;18.978;2023-04-25T04:50:54;98988.78;;;10.11;100.00
59110;BME280;44895;47.438;18.978;2023-04-25T04:54:21;99000.06;;;9.87;100.00
59110;BME280;44895;47.438;18.978;2023-04-25T04:57:48;99002.50;;;10.06;100.00
59110;BME280;44895;47.438;18.978;2023-04-25T05:01:15;99004.22;;;9.85;100.00
59110;BME280;44895;47.438;18.978;2023-04-25T05:04:45;99000.56;;;9.89;100.00
59110;BME280;44895;47.438;18.978;2023-04-25T05:07:57;99008.38;;;9.91;100.00
59110;BME280;44895;47.438;18.978;2023-04-25T05:11:31;98999.72;;;9.80;100.00
59110;BME280;44895;47.438;18.978;2023-04-25T05:15:16;98995.09;;;9.72;100.00
59110;BME280;44895;47.438;18.978;2023-04-25T05:18:36;98995.13;;;9.81;100.00
59110;BME280;44895;47.438;18.978;2023-04-25T05:21:52;98999.81;;;9.57;100.00
59110;BME280;44895;47.438;18.978;2023-04-25T05:25:16;99004.66;;;9.69;100.00
59110;BME280;44895;47.438;18.978;2023-04-25T05:28:26;99000.47;;;9.63;100.00
59110;BME280;44895;47.438;18.978;2023-04-25T05:31:45;99006.31;;;9.48;100.00
59110;BME280;44895;47.438;18.978;2023-04-25T05:34:52;99009.50;;;9.50;100.00
59110;BME280;44895;47.438;18.978;2023-04-25T05:38:16;99016.81;;;9.40;100.00
59110;BME280;44895;47.438;18.978;2023-04-25T05:41:40;99007.66;;;9.59;100.00
59110;BME280;44895;47.438;18.978;2023-04-25T05:45:05;99001.03;;;9.42;100.00
59110;BME280;44895;47.438;18.978;2023-04-25T05:48:16;99002.97;;;9.51;100.00
59110;BME280;44895;47.438;18.978;2023-04-25T05:51:38;99009.19;;;9.51;100.00
59110;BME280;44895;47.438;18.978;2023-04-25T05:54:49;99011.44;;;9.49;100.00
59110;BME280;44895;47.438;18.978;2023-04-25T05:57:53;99013.41;;;9.66;100.00
59110;BME280;44895;47.438;18.978;2023-04-25T06:00:57;99022.59;;;9.48;100.00
59110;BME280;44895;47.438;18.978;2023-04-25T06:04:01;99014.22;;;9.67;100.00
59110;BME280;44895;47.438;18.978;2023-04-25T06:07:04;99012.50;;;9.79;100.00
59110;BME280;44895;47.438;18.978;2023-04-25T06:10:09;99018.44;;;9.50;100.00
59110;BME280;44895;47.438;18.978;2023-04-25T06:13:13;99023.50;;;9.74;100.00
59110;BME280;44895;47.438;18.978;2023-04-25T06:16:17;99013.63;;;9.87;100.00
59110;BME280;44895;47.438;18.978;2023-04-25T06:19:20;99016.16;;;9.84;100.00
59110;BME280;44895;47.438;18.978;2023-04-25T06:22:24;99027.19;;;9.87;100.00
59110;BME280;44895;47.438;18.978;2023-04-25T06:25:28;99022.75;;;10.00;100.00
59110;BME280;44895;47.438;18.978;2023-04-25T06:28:32;99024.50;;;9.96;100.00
59110;BME280;44895;47.438;18.978;2023-04-25T06:31:37;99012.56;;;10.06;100.00
59110;BME280;44895;47.438;18.978;2023-04-25T06:34:40;99022.78;;;10.09;100.00
59110;BME280;44895;47.438;18.978;2023-04-25T06:37:44;99009.56;;;10.16;100.00
59110;BME280;44895;47.438;18.978;2023-04-25T06:40:48;99019.75;;;10.19;100.00
59110;BME280;44895;47.438;18.978;2023-04-25T06:43:53;99006.38;;;10.23;100.00
59110;BME280;44895;47.438;18.978;2023-04-25T06:47:10;99020.72;;;10.23;100.00
59110;BME280;44895;47.438;18.978;2023-04-25T06:50:14;99012.44;;;10.28;100.00
59110;BME280;44895;47.438;18.978;2023-04-25T06:53:17;99018.03;;;10.15;100.00
59110;BME280;44895;47.438;18.978;2023-04-25T06:56:25;99021.22;;;10.34;100.00
59110;BME280;44895;47.438;18.978;2023-04-25T06:59:42;99018.84;;;10.33;100.00
59110;BME280;44895;47.438;18.978;2023-04-25T07:02:46;99015.78;;;10.34;100.00
59110;BME280;44895;47.438;18.978;2023-04-25T07:05:50;99016.63;;;10.52;100.00
59110;BME280;44895;47.438;18.978;2023-04-25T07:08:55;99018.22;;;10.44;100.00
59110;BME280;44895;47.438;18.978;2023-04-25T07:12:00;99012.16;;;10.74;100.00
59110;BME280;44895;47.438;18.978;2023-04-25T07:15:06;99016.78;;;10.91;100.00
59110;BME280;44895;47.438;18.978;2023-04-25T07:18:13;99007.19;;;10.93;100.00
59110;BME280;44895;47.438;18.978;2023-04-25T07:21:17;99024.59;;;11.10;100.00
59110;BME280;44895;47.438;18.978;2023-04-25T07:24:22;99012.88;;;11.18;100.00
59110;BME280;44895;47.438;18.978;2023-04-25T07:27:28;99014.97;;;11.21;100.00
59110;BME280;44895;47.438;18.978;2023-04-25T07:30:37;99019.72;;;11.33;100.00
59110;BME280;44895;47.438;18.978;2023-04-25T07:33:41;99017.00;;;11.33;100.00
59110;BME280;44895;47.438;18.978;2023-04-25T07:36:45;99009.19;;;11.70;100.00
59110;BME280;44895;47.438;18.978;2023-04-25T07:39:49;99025.38;;;11.67;100.00
59110;BME280;44895;47.438;18.978;2023-04-25T07:42:53;99027.78;;;11.68;100.00
59110;BME280;44895;47.438;18.978;2023-04-25T07:46:04;99020.84;;;11.80;100.00
59110;BME280;44895;47.438;18.978;2023-04-25T07:49:11;99035.50;;;11.96;100.00
59110;BME280;44895;47.438;18.978;2023-04-25T07:52:15;99032.28;;;11.94;100.00
59110;BME280;44895;47.438;18.978;2023-04-25T07:55:25;99022.84;;;12.00;100.00
59110;BME280;44895;47.438;18.978;2023-04-25T07:58:44;99027.41;;;12.17;100.00
59110;BME280;44895;47.438;18.978;2023-04-25T08:01:51;99026.28;;;12.10;100.00
59110;BME280;44895;47.438;18.978;2023-04-25T08:04:56;99014.47;;;12.35;100.00
59110;BME280;44895;47.438;18.978;2023-04-25T08:08:00;99028.19;;;12.60;100.00
59110;BME280;44895;47.438;18.978;2023-04-25T08:11:05;99029.94;;;12.65;100.00
59110;BME280;44895;47.438;18.978;2023-04-25T08:14:09;99025.59;;;12.64;100.00
59110;BME280;44895;47.438;18.978;2023-04-25T08:17:14;99028.81;;;12.66;100.00
59110;BME280;44895;47.438;18.978;2023-04-25T08:20:19;99031.91;;;12.77;100.00
59110;BME280;44895;47.438;18.978;2023-04-25T08:23:23;99029.53;;;12.75;100.00
59110;BME280;44895;47.438;18.978;2023-04-25T08:26:39;99031.69;;;12.82;100.00
59110;BME280;44895;47.438;18.978;2023-04-25T08:29:45;99040.69;;;12.82;100.00
59110;BME280;44895;47.438;18.978;2023-04-25T08:32:48;99035.56;;;13.14;100.00
59110;BME280;44895;47.438;18.978;2023-04-25T08:36:15;99028.41;;;13.43;100.00
59110;BME280;44895;47.438;18.978;2023-04-25T08:39:19;99042.59;;;13.49;100.00
59110;BME280;44895;47.438;18.978;2023-04-25T08:42:44;99037.63;;;13.51;100.00
59110;BME280;44895;47.438;18.978;2023-04-25T08:45:53;99046.81;;;13.46;100.00
59110;BME280;44895;47.438;18.978;2023-04-25T08:49:20;99047.63;;;13.47;100.00
59110;BME280;44895;47.438;18.978;2023-04-25T08:52:27;99055.34;;;13.45;100.00
59110;BME280;44895;47.438;18.978;2023-04-25T08:55:32;99060.13;;;13.48;100.00
59110;BME280;44895;47.438;18.978;2023-04-25T08:58:36;99061.91;;;13.44;100.00
59110;BME280;44895;47.438;18.978;2023-04-25T09:01:40;99060.63;;;13.75;100.00
59110;BME280;44895;47.438;18.978;2023-04-25T09:04:44;99055.25;;;13.53;100.00
59110;BME280;44895;47.438;18.978;2023-04-25T09:07:48;99054.03;;;13.88;100.00
59110;BME280;44895;47.438;18.978;2023-04-25T09:10:52;99065.50;;;13.69;100.00
59110;BME280;44895;47.438;18.978;2023-04-25T09:14:18;99060.63;;;14.24;100.00
59110;BME280;44895;47.438;18.978;2023-04-25T09:17:44;99073.56;;;13.78;100.00
59110;BME280;44895;47.438;18.978;2023-04-25T09:20:49;99068.69;;;14.08;100.00
59110;BME280;44895;47.438;18.978;2023-04-25T09:23:56;99049.88;;;14.44;100.00
59110;BME280;44895;47.438;18.978;2023-04-25T09:27:21;99061.16;;;14.67;100.00
59110;BME280;44895;47.438;18.978;2023-04-25T09:30:31;99050.53;;;14.65;100.00
59110;BME280;44895;47.438;18.978;2023-04-25T09:33:43;99049.75;;;14.52;100.00
59110;BME280;44895;47.438;18.978;2023-04-25T09:36:47;99040.91;;;14.43;100.00
59110;BME280;44895;47.438;18.978;2023-04-25T09:39:57;99051.78;;;14.68;100.00
59110;BME280;44895;47.438;18.978;2023-04-25T09:43:20;99053.66;;;14.39;100.00
59110;BME280;44895;47.438;18.978;2023-04-25T09:46:33;99047.94;;;14.57;100.00
59110;BME280;44895;47.438;18.978;2023-04-25T09:49:40;99047.13;;;14.68;100.00
59110;BME280;44895;47.438;18.978;2023-04-25T09:53:03;99047.94;;;14.57;100.00
59110;BME280;44895;47.438;18.978;2023-04-25T09:56:12;99045.44;;;14.51;100.00
59110;BME280;44895;47.438;18.978;2023-04-25T09:59:16;99050.56;;;14.53;100.00
59110;BME280;44895;47.438;18.978;2023-04-25T10:02:22;99059.03;;;14.11;100.00
59110;BME280;44895;47.438;18.978;2023-04-25T10:05:30;99057.22;;;14.02;100.00
59110;BME280;44895;47.438;18.978;2023-04-25T10:08:36;99072.47;;;13.91;100.00
59110;BME280;44895;47.438;18.978;2023-04-25T10:11:40;99072.34;;;13.88;100.00
59110;BME280;44895;47.438;18.978;2023-04-25T10:14:45;99059.72;;;13.83;100.00
59110;BME280;44895;47.438;18.978;2023-04-25T10:17:50;99062.53;;;14.24;100.00
59110;BME280;44895;47.438;18.978;2023-04-25T10:21:04;99061.16;;;14.30;100.00
59110;BME280;44895;47.438;18.978;2023-04-25T10:24:09;99062.88;;;14.10;100.00
59110;BME280;44895;47.438;18.978;2023-04-25T10:27:13;99058.00;;;14.28;100.00
59110;BME280;44895;47.438;18.978;2023-04-25T10:30:18;99054.31;;;14.61;100.00
59110;BME280;44895;47.438;18.978;2023-04-25T10:33:30;99051.47;;;14.98;100.00
59110;BME280;44895;47.438;18.978;2023-04-25T10:36:35;99042.59;;;15.17;100.00
59110;BME280;44895;47.438;18.978;2023-04-25T10:39:41;99044.03;;;15.27;100.00
59110;BME280;44895;47.438;18.978;2023-04-25T10:42:45;99047.56;;;15.27;100.00
59110;BME280;44895;47.438;18.978;2023-04-25T10:45:52;99056.19;;;14.85;100.00
59110;BME280;44895;47.438;18.978;2023-04-25T10:48:58;99056.25;;;15.01;100.00
59110;BME280;44895;47.438;18.978;2023-04-25T10:55:16;99060.19;;;14.75;100.00
59110;BME280;44895;47.438;18.978;2023-04-25T10:58:22;99060.91;;;15.00;100.00
59110;BME280;44895;47.438;18.978;2023-04-25T11:01:26;99061.53;;;15.54;100.00
59110;BME280;44895;47.438;18.978;2023-04-25T11:04:33;99058.13;;;15.89;100.00
59110;BME280;44895;47.438;18.978;2023-04-25T11:07:43;99052.41;;;15.94;92.83
59110;BME280;44895;47.438;18.978;2023-04-25T11:10:47;99061.94;;;16.52;87.19
59110;BME280;44895;47.438;18.978;2023-04-25T11:13:52;99051.50;;;16.06;76.83
59110;BME280;44895;47.438;18.978;2023-04-25T11:16:59;99062.00;;;16.20;78.70
59110;BME280;44895;47.438;18.978;2023-04-25T11:20:04;99065.06;;;16.35;76.63
59110;BME280;44895;47.438;18.978;2023-04-25T11:23:15;99057.94;;;16.14;75.07
59110;BME280;44895;47.438;18.978;2023-04-25T11:26:19;99063.69;;;16.09;75.36
59110;BME280;44895;47.438;18.978;2023-04-25T11:29:26;99068.81;;;15.94;77.81
59110;BME280;44895;47.438;18.978;2023-04-25T11:32:30;99066.25;;;15.70;79.24
59110;BME280;44895;47.438;18.978;2023-04-25T11:35:34;99075.56;;;15.53;78.29
59110;BME280;44895;47.438;18.978;2023-04-25T11:38:38;99074.59;;;15.45;75.94
59110;BME280;44895;47.438;18.978;2023-04-25T11:41:42;99074.97;;;15.43;75.89
59110;BME280;44895;47.438;18.978;2023-04-25T11:44:46;99089.47;;;15.76;75.49
59110;BME280;44895;47.438;18.978;2023-04-25T11:47:49;99086.28;;;15.74;74.31
59110;BME280;44895;47.438;18.978;2023-04-25T11:50:53;99083.22;;;15.91;75.13
59110;BME280;44895;47.438;18.978;2023-04-25T11:53:57;99096.19;;;15.78;74.04
59110;BME280;44895;47.438;18.978;2023-04-25T11:57:01;99096.44;;;16.21;73.97
59110;BME280;44895;47.438;18.978;2023-04-25T12:00:14;99097.22;;;16.38;69.06
59110;BME280;44895;47.438;18.978;2023-04-25T12:03:18;99092.31;;;16.83;67.16
59110;BME280;44895;47.438;18.978;2023-04-25T12:06:27;99100.97;;;16.65;63.59
59110;BME280;44895;47.438;18.978;2023-04-25T12:09:33;99092.72;;;17.01;63.69
59110;BME280;44895;47.438;18.978;2023-04-25T12:12:37;99093.16;;;17.03;61.75
59110;BME280;44895;47.438;18.978;2023-04-25T12:15:41;99100.59;;;17.22;59.84
59110;BME280;44895;47.438;18.978;2023-04-25T12:18:45;99089.22;;;17.43;63.40
59110;BME280;44895;47.438;18.978;2023-04-25T12:21:49;99091.03;;;17.35;62.02
59110;BME280;44895;47.438;18.978;2023-04-25T12:24:53;99087.53;;;17.15;62.45
59110;BME280;44895;47.438;18.978;2023-04-25T12:28:13;99080.75;;;17.09;62.35
59110;BME280;44895;47.438;18.978;2023-04-25T12:31:16;99096.00;;;16.90;60.37
59110;BME280;44895;47.438;18.978;2023-04-25T12:34:20;99089.59;;;16.47;57.58
59110;BME280;44895;47.438;18.978;2023-04-25T12:37:24;99079.78;;;16.10;55.24
59110;BME280;44895;47.438;18.978;2023-04-25T12:40:28;99084.22;;;16.51;57.55
59110;BME280;44895;47.438;18.978;2023-04-25T12:43:32;99071.13;;;16.44;57.72
59110;BME280;44895;47.438;18.978;2023-04-25T12:46:37;99067.50;;;16.04;56.72
59110;BME280;44895;47.438;18.978;2023-04-25T12:49:41;99063.06;;;16.00;56.39
59110;BME280;44895;47.438;18.978;2023-04-25T12:52:44;99056.34;;;16.13;57.20
59110;BME280;44895;47.438;18.978;2023-04-25T12:55:48;99059.69;;;16.22;57.68
59110;BME280;44895;47.438;18.978;2023-04-25T12:58:52;99065.03;;;15.99;55.39
59110;BME280;44895;47.438;18.978;2023-04-25T13:01:56;99062.53;;;15.62;53.84
59110;BME280;44895;47.438;18.978;2023-04-25T13:05:00;99063.84;;;15.68;53.69
59110;BME280;44895;47.438;18.978;2023-04-25T13:08:04;99063.88;;;15.84;55.07
59110;BME280;44895;47.438;18.978;2023-04-25T13:11:08;99058.47;;;15.72;54.81
59110;BME280;44895;47.438;18.978;2023-04-25T13:14:12;99059.25;;;15.56;54.53
59110;BME280;44895;47.438;18.978;2023-04-25T13:17:16;99060.59;;;15.78;55.50
59110;BME280;44895;47.438;18.978;2023-04-25T13:20:20;99057.59;;;15.68;54.16
59110;BME280;44895;47.438;18.978;2023-04-25T13:23:28;99070.16;;;15.24;55.61
59110;BME280;44895;47.438;18.978;2023-04-25T13:26:32;99053.19;;;15.19;57.11
59110;BME280;44895;47.438;18.978;2023-04-25T13:29:35;99051.03;;;15.56;55.04
59110;BME280;44895;47.438;18.978;2023-04-25T13:32:41;99046.25;;;15.37;53.80
59110;BME280;44895;47.438;18.978;2023-04-25T13:35:44;99051.31;;;15.51;54.15
59110;BME280;44895;47.438;18.978;2023-04-25T13:38:57;99037.78;;;15.42;54.53
59110;BME280;44895;47.438;18.978;2023-04-25T13:42:00;99043.72;;;15.60;55.13
59110;BME280;44895;47.438;18.978;2023-04-25T13:45:05;99033.66;;;15.64;54.85
59110;BME280;44895;47.438;18.978;2023-04-25T13:48:10;99038.59;;;15.59;55.74
59110;BME280;44895;47.438;18.978;2023-04-25T13:51:14;99041.50;;;15.34;55.55
59110;BME280;44895;47.438;18.978;2023-04-25T13:54:18;99049.63;;;15.46;56.62
59110;BME280;44895;47.438;18.978;2023-04-25T13:57:22;99038.78;;;15.50;56.06
59110;BME280;44895;47.438;18.978;2023-04-25T14:00:26;99035.94;;;15.46;56.34
59110;BME280;44895;47.438;18.978;2023-04-25T14:03:30;99042.22;;;15.47;56.55
59110;BME280;44895;47.438;18.978;2023-04-25T14:06:34;99035.50;;;15.60;57.46
59110;BME280;44895;47.438;18.978;2023-04-25T14:09:38;99044.88;;;15.75;56.18
59110;BME280;44895;47.438;18.978;2023-04-25T14:12:42;99041.00;;;15.76;55.95
59110;BME280;44895;47.438;18.978;2023-04-25T14:15:46;99031.72;;;15.65;55.60
59110;BME280;44895;47.438;18.978;2023-04-25T14:18:50;99039.75;;;15.58;55.65
59110;BME280;44895;47.438;18.978;2023-04-25T14:21:54;99041.06;;;15.64;55.50
59110;BME280;44895;47.438;18.978;2023-04-25T14:24:57;99040.38;;;15.51;54.56
59110;BME280;44895;47.438;18.978;2023-04-25T14:28:01;99039.16;;;15.64;55.22
59110;BME280;44895;47.438;18.978;2023-04-25T14:31:05;99044.44;;;15.57;54.90
59110;BME280;44895;47.438;18.978;2023-04-25T14:34:09;99056.63;;;15.60;54.91
59110;BME280;44895;47.438;18.978;2023-04-25T14:37:12;99043.44;;;15.65;54.74
59110;BME280;44895;47.438;18.978;2023-04-25T14:40:16;99044.50;;;15.45;53.23
59110;BME280;44895;47.438;18.978;2023-04-25T14:43:20;99035.22;;;15.33;53.82
59110;BME280;44895;47.438;18.978;2023-04-25T14:46:24;99049.78;;;15.38;53.79
59110;BME280;44895;47.438;18.978;2023-04-25T14:49:29;99043.94;;;15.23;54.06
59110;BME280;44895;47.438;18.978;2023-04-25T14:52:32;99041.31;;;15.27;54.97
59110;BME280;44895;47.438;18.978;2023-04-25T14:55:36;99034.69;;;15.28;55.91
59110;BME280;44895;47.438;18.978;2023-04-25T14:58:40;99039.63;;;15.22;55.63
59110;BME280;44895;47.438;18.978;2023-04-25T15:01:44;99040.03;;;15.08;55.42
59110;BME280;44895;47.438;18.978;2023-04-25T15:04:47;99045.13;;;15.10;56.24
59110;BME280;44895;47.438;18.978;2023-04-25T15:07:51;99052.66;;;15.13;56.14
59110;BME280;44895;47.438;18.978;2023-04-25T15:10:55;99044.66;;;15.20;56.16
59110;BME280;44895;47.438;18.978;2023-04-25T15:13:59;99054.25;;;14.86;55.19
59110;BME280;44895;47.438;18.978;2023-04-25T15:17:03;99049.44;;;14.95;55.13
59110;BME280;44895;47.438;18.978;2023-04-25T15:20:08;99049.63;;;14.74;55.68
59110;BME280;44895;47.438;18.978;2023-04-25T15:23:17;99045.09;;;14.53;56.87
59110;BME280;44895;47.438;18.978;2023-04-25T15:26:21;99055.56;;;14.51;57.73
59110;BME280;44895;47.438;18.978;2023-04-25T15:29:24;99063.75;;;14.51;58.21
59110;BME280;44895;47.438;18.978;2023-04-25T15:32:29;99059.91;;;14.64;59.05
59110;BME280;44895;47.438;18.978;2023-04-25T15:35:33;99061.00;;;14.63;59.84
59110;BME280;44895;47.438;18.978;2023-04-25T15:38:37;99058.75;;;14.65;59.74
59110;BME280;44895;47.438;18.978;2023-04-25T15:41:41;99058.75;;;14.53;59.46
59110;BME280;44895;47.438;18.978;2023-04-25T15:44:45;99069.69;;;14.53;61.02
59110;BME280;44895;47.438;18.978;2023-04-25T15:47:48;99079.94;;;14.44;61.72
59110;BME280;44895;47.438;18.978;2023-04-25T15:50:53;99080.88;;;14.11;71.80
59110;BME280;44895;47.438;18.978;2023-04-25T15:53:57;99090.44;;;14.17;77.92
59110;BME280;44895;47.438;18.978;2023-04-25T15:57:01;99078.25;;;14.14;81.65
59110;BME280;44895;47.438;18.978;2023-04-25T16:00:05;99086.91;;;13.92;82.75
59110;BME280;44895;47.438;18.978;2023-04-25T16:03:15;99081.09;;;13.81;85.61
59110;BME280;44895;47.438;18.978;2023-04-25T16:06:19;99073.81;;;13.85;84.47
59110;BME280;44895;47.438;18.978;2023-04-25T16:09:22;99075.97;;;13.79;85.08
59110;BME280;44895;47.438;18.978;2023-04-25T16:12:27;99080.84;;;13.74;85.14